sensor_id;sensor_type;location;lat;lon;timestamp;P1;durP1;ratioP1;P2;durP2;ratioP2
34557;SDS011;24708;48.888;8.736;2023-03-15T06:31:51;9.35;;;2.47;;
34557;SDS011;24708;48.888;8.736;2023-03-15T06:34:19;4.45;;;2.03;;
34557;SDS011;24708;48.888;8.736;2023-03-15T06:36:47;8.60;;;2.35;;
34557;SDS011;24708;48.888;8.736;2023-03-15T06:39:18;7.50;;;1.95;;
34557;SDS011;24708;48.888;8.736;2023-03-15T06:41:46;5.35;;;1.63;;
34557;SDS011;24708;48.888;8.736;2023-03-15T06:44:13;8.90;;;1.75;;
34557;SDS011;24708;48.888;8.736;2023-03-15T06:46:41;10.02;;;2.10;;
34557;SDS011;24708;48.888;8.736;2023-03-15T06:49:08;2.53;;;1.90;;
34557;SDS011;24708;48.888;8.736;2023-03-15T06:51:36;3.92;;;1.98;;
34557;SDS011;24708;48.888;8.736;2023-03-15T06:54:04;9.73;;;3.55;;
34557;SDS011;24708;48.888;8.736;2023-03-15T06:56:32;9.80;;;2.45;;
34557;SDS011;24708;48.888;8.736;2023-03-15T06:59:02;11.63;;;2.67;;
34557;SDS011;24708;48.888;8.736;2023-03-15T07:01:30;7.03;;;2.72;;
34557;SDS011;24708;48.888;8.736;2023-03-15T07:03:58;10.95;;;2.10;;
34557;SDS011;24708;48.888;8.736;2023-03-15T07:06:27;6.78;;;2.17;;
34557;SDS011;24708;48.888;8.736;2023-03-15T07:08:56;4.35;;;1.98;;
34557;SDS011;24708;48.888;8.736;2023-03-15T07:11:26;6.03;;;2.13;;
34557;SDS011;24708;48.888;8.736;2023-03-15T07:13:55;5.90;;;2.08;;
34557;SDS011;24708;48.888;8.736;2023-03-15T07:16:24;10.13;;;1.98;;
34557;SDS011;24708;48.888;8.736;2023-03-15T07:18:53;11.20;;;2.13;;
34557;SDS011;24708;48.888;8.736;2023-03-15T07:21:25;6.45;;;1.90;;
34557;SDS011;24708;48.888;8.736;2023-03-15T07:23:54;6.85;;;1.92;;
34557;SDS011;24708;48.888;8.736;2023-03-15T07:26:23;4.30;;;2.15;;
34557;SDS011;24708;48.888;8.736;2023-03-15T07:28:53;10.57;;;2.15;;
34557;SDS011;24708;48.888;8.736;2023-03-15T07:31:23;5.40;;;1.60;;
34557;SDS011;24708;48.888;8.736;2023-03-15T07:33:53;6.63;;;1.48;;
34557;SDS011;24708;48.888;8.736;2023-03-15T07:36:21;4.13;;;1.70;;
34557;SDS011;24708;48.888;8.736;2023-03-15T07:38:49;7.25;;;1.95;;
34557;SDS011;24708;48.888;8.736;2023-03-15T07:41:18;2.92;;;1.40;;
34557;SDS011;24708;48.888;8.736;2023-03-15T07:43:46;2.28;;;1.27;;
34557;SDS011;24708;48.888;8.736;2023-03-15T07:46:14;7.25;;;1.42;;
34557;SDS011;24708;48.888;8.736;2023-03-15T07:48:42;10.23;;;1.25;;
34557;SDS011;24708;48.888;8.736;2023-03-15T07:51:10;8.88;;;1.15;;
34557;SDS011;24708;48.888;8.736;2023-03-15T07:53:39;4.15;;;1.10;;
34557;SDS011;24708;48.888;8.736;2023-03-15T07:56:06;1.77;;;0.60;;
34557;SDS011;24708;48.888;8.736;2023-03-15T07:58:34;6.35;;;1.60;;
34557;SDS011;24708;48.888;8.736;2023-03-15T08:01:02;6.07;;;1.17;;
34557;SDS011;24708;48.888;8.736;2023-03-15T08:03:29;3.83;;;1.10;;
34557;SDS011;24708;48.888;8.736;2023-03-15T08:05:57;1.85;;;0.73;;
34557;SDS011;24708;48.888;8.736;2023-03-15T08:08:25;5.25;;;0.85;;
34557;SDS011;24708;48.888;8.736;2023-03-15T08:10:54;3.38;;;0.80;;
34557;SDS011;24708;48.888;8.736;2023-03-15T08:13:24;8.63;;;1.50;;
34557;SDS011;24708;48.888;8.736;2023-03-15T08:15:51;1.98;;;0.90;;
34557;SDS011;24708;48.888;8.736;2023-03-15T08:18:19;4.15;;;1.00;;
34557;SDS011;24708;48.888;8.736;2023-03-15T08:20:47;1.80;;;0.98;;
34557;SDS011;24708;48.888;8.736;2023-03-15T08:23:15;4.70;;;0.90;;
34557;SDS011;24708;48.888;8.736;2023-03-15T08:25:43;5.00;;;0.77;;
34557;SDS011;24708;48.888;8.736;2023-03-15T08:28:10;5.18;;;0.73;;
34557;SDS011;24708;48.888;8.736;2023-03-15T08:30:39;8.02;;;1.50;;
34557;SDS011;24708;48.888;8.736;2023-03-15T08:33:06;11.23;;;1.85;;
34557;SDS011;24708;48.888;8.736;2023-03-15T08:35:35;12.43;;;2.90;;
34557;SDS011;24708;48.888;8.736;2023-03-15T08:38:02;6.00;;;1.98;;
34557;SDS011;24708;48.888;8.736;2023-03-15T08:40:30;12.85;;;2.83;;
34557;SDS011;24708;48.888;8.736;2023-03-15T08:42:59;5.72;;;1.20;;
34557;SDS011;24708;48.888;8.736;2023-03-15T08:45:26;7.47;;;1.88;;
34557;SDS011;24708;48.888;8.736;2023-03-15T08:47:57;2.90;;;1.63;;
34557;SDS011;24708;48.888;8.736;2023-03-15T08:50:26;5.82;;;1.17;;
34557;SDS011;24708;48.888;8.736;2023-03-15T08:52:57;4.50;;;0.80;;
34557;SDS011;24708;48.888;8.736;2023-03-15T08:55:24;8.02;;;0.90;;
34557;SDS011;24708;48.888;8.736;2023-03-15T08:57:53;7.63;;;1.00;;
34557;SDS011;24708;48.888;8.736;2023-03-15T09:00:22;4.80;;;0.98;;
34557;SDS011;24708;48.888;8.736;2023-03-15T09:02:50;10.10;;;1.45;;
34557;SDS011;24708;48.888;8.736;2023-03-15T09:05:19;5.85;;;0.85;;
34557;SDS011;24708;48.888;8.736;2023-03-15T09:07:48;2.15;;;0.50;;
34557;SDS011;24708;48.888;8.736;2023-03-15T09:10:21;2.08;;;0.47;;
34557;SDS011;24708;48.888;8.736;2023-03-15T09:12:50;9.88;;;0.68;;
34557;SDS011;24708;48.888;8.736;2023-03-15T09:15:20;4.80;;;0.88;;
34557;SDS011;24708;48.888;8.736;2023-03-15T09:17:51;3.33;;;0.80;;
34557;SDS011;24708;48.888;8.736;2023-03-15T09:20:19;9.13;;;0.90;;
34557;SDS011;24708;48.888;8.736;2023-03-15T09:22:51;6.53;;;0.90;;
34557;SDS011;24708;48.888;8.736;2023-03-15T09:25:21;3.05;;;0.60;;
34557;SDS011;24708;48.888;8.736;2023-03-15T09:27:51;2.05;;;0.70;;
34557;SDS011;24708;48.888;8.736;2023-03-15T09:30:20;4.85;;;1.00;;
34557;SDS011;24708;48.888;8.736;2023-03-15T09:32:48;4.03;;;1.00;;
34557;SDS011;24708;48.888;8.736;2023-03-15T09:35:16;3.70;;;0.82;;
34557;SDS011;24708;48.888;8.736;2023-03-15T09:37:46;2.58;;;0.82;;
34557;SDS011;24708;48.888;8.736;2023-03-15T09:40:19;6.80;;;0.93;;
34557;SDS011;24708;48.888;8.736;2023-03-15T09:42:54;8.93;;;1.10;;
34557;SDS011;24708;48.888;8.736;2023-03-15T09:48:38;2.88;;;0.93;;
34557;SDS011;24708;48.888;8.736;2023-03-15T09:51:15;3.35;;;1.13;;
34557;SDS011;24708;48.888;8.736;2023-03-15T09:53:54;4.32;;;1.05;;
34557;SDS011;24708;48.888;8.736;2023-03-15T09:56:37;1.58;;;1.20;;
34557;SDS011;24708;48.888;8.736;2023-03-15T09:59:11;0.82;;;0.50;;
34557;SDS011;24708;48.888;8.736;2023-03-15T10:01:43;1.63;;;0.80;;
34557;SDS011;24708;48.888;8.736;2023-03-15T10:04:47;3.03;;;0.40;;
34557;SDS011;24708;48.888;8.736;2023-03-15T10:07:11;0.35;;;0.30;;
34557;SDS011;24708;48.888;8.736;2023-03-15T10:09:40;2.00;;;0.60;;
34557;SDS011;24708;48.888;8.736;2023-03-15T10:12:14;3.92;;;0.63;;
34557;SDS011;24708;48.888;8.736;2023-03-15T10:18:00;0.88;;;0.40;;
34557;SDS011;24708;48.888;8.736;2023-03-15T10:20:43;3.85;;;0.80;;
34557;SDS011;24708;48.888;8.736;2023-03-15T10:23:22;5.63;;;0.68;;
34557;SDS011;24708;48.888;8.736;2023-03-15T10:26:13;3.22;;;1.00;;
34557;SDS011;24708;48.888;8.736;2023-03-15T10:28:44;4.18;;;0.70;;
34557;SDS011;24708;48.888;8.736;2023-03-15T10:31:14;2.60;;;0.88;;
34557;SDS011;24708;48.888;8.736;2023-03-15T10:34:09;2.20;;;0.52;;
34557;SDS011;24708;48.888;8.736;2023-03-15T10:36:44;5.50;;;1.23;;
34557;SDS011;24708;48.888;8.736;2023-03-15T10:39:26;2.05;;;0.85;;
34557;SDS011;24708;48.888;8.736;2023-03-15T10:41:57;1.30;;;0.63;;
34557;SDS011;24708;48.888;8.736;2023-03-15T10:44:26;4.65;;;0.75;;
34557;SDS011;24708;48.888;8.736;2023-03-15T10:49:50;3.28;;;0.80;;
34557;SDS011;24708;48.888;8.736;2023-03-15T10:52:35;1.33;;;0.98;;
34557;SDS011;24708;48.888;8.736;2023-03-15T10:55:13;3.58;;;1.40;;
34557;SDS011;24708;48.888;8.736;2023-03-15T10:57:54;7.22;;;1.83;;
34557;SDS011;24708;48.888;8.736;2023-03-15T11:00:32;2.95;;;1.05;;
34557;SDS011;24708;48.888;8.736;2023-03-15T11:03:06;6.82;;;1.73;;
34557;SDS011;24708;48.888;8.736;2023-03-15T11:05:53;3.40;;;2.08;;
34557;SDS011;24708;48.888;8.736;2023-03-15T11:08:38;2.17;;;1.50;;
34557;SDS011;24708;48.888;8.736;2023-03-15T11:11:09;3.63;;;1.85;;
34557;SDS011;24708;48.888;8.736;2023-03-15T11:13:39;7.35;;;1.77;;
34557;SDS011;24708;48.888;8.736;2023-03-15T11:16:33;2.63;;;1.35;;
34557;SDS011;24708;48.888;8.736;2023-03-15T11:19:06;3.35;;;1.80;;
34557;SDS011;24708;48.888;8.736;2023-03-15T11:21:41;6.85;;;1.95;;
34557;SDS011;24708;48.888;8.736;2023-03-15T11:24:19;2.58;;;1.40;;
34557;SDS011;24708;48.888;8.736;2023-03-15T11:27:05;3.03;;;1.60;;
34557;SDS011;24708;48.888;8.736;2023-03-15T11:29:49;5.03;;;1.88;;
34557;SDS011;24708;48.888;8.736;2023-03-15T11:32:24;2.22;;;1.75;;
34557;SDS011;24708;48.888;8.736;2023-03-15T11:37:57;10.85;;;2.03;;
34557;SDS011;24708;48.888;8.736;2023-03-15T11:40:45;2.28;;;1.83;;
34557;SDS011;24708;48.888;8.736;2023-03-15T11:43:19;2.78;;;1.20;;
34557;SDS011;24708;48.888;8.736;2023-03-15T11:45:57;5.88;;;1.48;;
34557;SDS011;24708;48.888;8.736;2023-03-15T11:48:45;1.77;;;1.52;;
34557;SDS011;24708;48.888;8.736;2023-03-15T11:51:21;1.73;;;1.45;;
34557;SDS011;24708;48.888;8.736;2023-03-15T11:54:03;5.28;;;1.58;;
34557;SDS011;24708;48.888;8.736;2023-03-15T11:59:33;2.50;;;1.90;;
34557;SDS011;24708;48.888;8.736;2023-03-15T12:04:43;7.55;;;1.58;;
34557;SDS011;24708;48.888;8.736;2023-03-15T12:09:49;5.28;;;2.03;;
34557;SDS011;24708;48.888;8.736;2023-03-15T12:20:12;1.73;;;1.60;;
34557;SDS011;24708;48.888;8.736;2023-03-15T12:22:47;2.65;;;1.88;;
34557;SDS011;24708;48.888;8.736;2023-03-15T12:28:27;3.40;;;1.70;;
34557;SDS011;24708;48.888;8.736;2023-03-15T12:30:58;8.30;;;2.03;;
34557;SDS011;24708;48.888;8.736;2023-03-15T12:33:29;4.90;;;2.95;;
34557;SDS011;24708;48.888;8.736;2023-03-15T12:35:59;4.43;;;2.67;;
34557;SDS011;24708;48.888;8.736;2023-03-15T12:38:34;2.67;;;1.90;;
34557;SDS011;24708;48.888;8.736;2023-03-15T12:41:08;4.70;;;2.38;;
34557;SDS011;24708;48.888;8.736;2023-03-15T12:49:12;3.33;;;2.22;;
34557;SDS011;24708;48.888;8.736;2023-03-15T12:51:57;8.05;;;4.00;;
34557;SDS011;24708;48.888;8.736;2023-03-15T12:58:08;26.40;;;7.35;;
34557;SDS011;24708;48.888;8.736;2023-03-15T13:00:20;10.82;;;3.28;;
34557;SDS011;24708;48.888;8.736;2023-03-15T13:03:13;4.43;;;1.88;;
34557;SDS011;24708;48.888;8.736;2023-03-15T13:09:00;8.48;;;2.90;;
34557;SDS011;24708;48.888;8.736;2023-03-15T13:14:45;3.85;;;2.42;;
34557;SDS011;24708;48.888;8.736;2023-03-15T13:23:20;3.47;;;2.67;;
34557;SDS011;24708;48.888;8.736;2023-03-15T13:31:28;5.80;;;2.17;;
34557;SDS011;24708;48.888;8.736;2023-03-15T13:39:31;3.60;;;1.95;;
34557;SDS011;24708;48.888;8.736;2023-03-15T13:42:16;2.70;;;1.50;;
34557;SDS011;24708;48.888;8.736;2023-03-15T13:44:47;5.70;;;1.88;;
34557;SDS011;24708;48.888;8.736;2023-03-15T13:47:29;4.53;;;1.60;;
34557;SDS011;24708;48.888;8.736;2023-03-15T13:49:57;3.05;;;1.65;;
34557;SDS011;24708;48.888;8.736;2023-03-15T13:52:25;2.35;;;1.95;;
34557;SDS011;24708;48.888;8.736;2023-03-15T13:54:53;2.22;;;1.55;;
34557;SDS011;24708;48.888;8.736;2023-03-15T13:57:22;1.95;;;1.58;;
34557;SDS011;24708;48.888;8.736;2023-03-15T13:59:51;7.32;;;2.05;;
34557;SDS011;24708;48.888;8.736;2023-03-15T14:02:31;4.13;;;1.60;;
34557;SDS011;24708;48.888;8.736;2023-03-15T14:05:06;3.10;;;2.25;;
34557;SDS011;24708;48.888;8.736;2023-03-15T14:07:40;2.88;;;2.30;;
34557;SDS011;24708;48.888;8.736;2023-03-15T14:12:48;4.57;;;1.85;;
34557;SDS011;24708;48.888;8.736;2023-03-15T14:15:36;2.97;;;2.03;;
34557;SDS011;24708;48.888;8.736;2023-03-15T14:23:10;9.73;;;2.20;;
34557;SDS011;24708;48.888;8.736;2023-03-15T14:25:41;2.35;;;1.90;;
34557;SDS011;24708;48.888;8.736;2023-03-15T14:28:11;3.08;;;2.20;;
34557;SDS011;24708;48.888;8.736;2023-03-15T14:30:41;2.00;;;1.70;;
34557;SDS011;24708;48.888;8.736;2023-03-15T14:33:32;6.85;;;2.60;;
34557;SDS011;24708;48.888;8.736;2023-03-15T14:36:01;6.05;;;2.63;;
34557;SDS011;24708;48.888;8.736;2023-03-15T14:38:33;5.47;;;2.45;;
34557;SDS011;24708;48.888;8.736;2023-03-15T14:41:09;2.30;;;2.05;;
34557;SDS011;24708;48.888;8.736;2023-03-15T14:43:43;3.42;;;2.53;;
34557;SDS011;24708;48.888;8.736;2023-03-15T14:46:11;3.50;;;2.80;;
34557;SDS011;24708;48.888;8.736;2023-03-15T14:48:38;7.70;;;2.15;;
34557;SDS011;24708;48.888;8.736;2023-03-15T14:51:09;6.10;;;2.65;;
34557;SDS011;24708;48.888;8.736;2023-03-15T14:53:43;5.10;;;2.30;;
34557;SDS011;24708;48.888;8.736;2023-03-15T14:56:11;3.55;;;2.28;;
34557;SDS011;24708;48.888;8.736;2023-03-15T14:58:40;3.08;;;2.55;;
34557;SDS011;24708;48.888;8.736;2023-03-15T15:01:11;8.73;;;2.53;;
34557;SDS011;24708;48.888;8.736;2023-03-15T15:03:41;6.15;;;2.78;;
34557;SDS011;24708;48.888;8.736;2023-03-15T15:06:14;6.43;;;2.75;;
34557;SDS011;24708;48.888;8.736;2023-03-15T15:08:43;2.80;;;2.35;;
34557;SDS011;24708;48.888;8.736;2023-03-15T15:11:13;6.38;;;2.50;;
34557;SDS011;24708;48.888;8.736;2023-03-15T15:13:40;3.65;;;2.92;;
34557;SDS011;24708;48.888;8.736;2023-03-15T15:16:08;3.53;;;2.72;;
34557;SDS011;24708;48.888;8.736;2023-03-15T15:18:36;4.43;;;2.63;;
34557;SDS011;24708;48.888;8.736;2023-03-15T15:21:25;4.20;;;3.70;;
34557;SDS011;24708;48.888;8.736;2023-03-15T15:24:00;4.00;;;2.55;;
34557;SDS011;24708;48.888;8.736;2023-03-15T15:26:31;3.97;;;2.42;;
34557;SDS011;24708;48.888;8.736;2023-03-15T15:28:59;2.78;;;2.45;;
34557;SDS011;24708;48.888;8.736;2023-03-15T15:31:26;6.15;;;2.88;;
34557;SDS011;24708;48.888;8.736;2023-03-15T15:33:55;3.45;;;3.13;;
34557;SDS011;24708;48.888;8.736;2023-03-15T15:36:24;5.13;;;3.53;;
34557;SDS011;24708;48.888;8.736;2023-03-15T15:38:59;4.82;;;2.90;;
34557;SDS011;24708;48.888;8.736;2023-03-15T15:44:00;4.95;;;3.00;;
34557;SDS011;24708;48.888;8.736;2023-03-15T15:46:27;4.13;;;2.90;;
34557;SDS011;24708;48.888;8.736;2023-03-15T15:48:55;5.57;;;2.05;;
34557;SDS011;24708;48.888;8.736;2023-03-15T15:53:57;3.60;;;2.47;;
34557;SDS011;24708;48.888;8.736;2023-03-15T15:56:31;4.85;;;2.65;;
34557;SDS011;24708;48.888;8.736;2023-03-15T15:59:00;7.30;;;2.92;;
34557;SDS011;24708;48.888;8.736;2023-03-15T16:01:30;6.97;;;3.00;;
34557;SDS011;24708;48.888;8.736;2023-03-15T16:03:59;4.53;;;3.53;;
34557;SDS011;24708;48.888;8.736;2023-03-15T16:06:27;2.95;;;2.42;;
34557;SDS011;24708;48.888;8.736;2023-03-15T16:08:56;5.57;;;3.13;;
34557;SDS011;24708;48.888;8.736;2023-03-15T16:11:23;2.60;;;2.28;;
34557;SDS011;24708;48.888;8.736;2023-03-15T16:13:51;3.58;;;2.20;;
34557;SDS011;24708;48.888;8.736;2023-03-15T16:16:22;3.13;;;2.47;;
34557;SDS011;24708;48.888;8.736;2023-03-15T16:18:49;5.53;;;3.10;;
34557;SDS011;24708;48.888;8.736;2023-03-15T16:21:59;3.92;;;3.10;;
34557;SDS011;24708;48.888;8.736;2023-03-15T16:26:45;5.50;;;2.80;;
34557;SDS011;24708;48.888;8.736;2023-03-15T16:29:15;4.75;;;3.35;;
34557;SDS011;24708;48.888;8.736;2023-03-15T16:31:45;5.32;;;3.80;;
34557;SDS011;24708;48.888;8.736;2023-03-15T16:34:13;5.63;;;3.80;;
34557;SDS011;24708;48.888;8.736;2023-03-15T16:36:42;7.63;;;3.92;;
34557;SDS011;24708;48.888;8.736;2023-03-15T16:39:15;3.80;;;3.42;;
34557;SDS011;24708;48.888;8.736;2023-03-15T16:41:42;5.13;;;3.05;;
34557;SDS011;24708;48.888;8.736;2023-03-15T16:44:10;2.83;;;2.33;;
34557;SDS011;24708;48.888;8.736;2023-03-15T16:46:39;4.38;;;3.10;;
34557;SDS011;24708;48.888;8.736;2023-03-15T16:49:06;4.22;;;3.05;;
34557;SDS011;24708;48.888;8.736;2023-03-15T16:51:36;5.10;;;2.60;;
34557;SDS011;24708;48.888;8.736;2023-03-15T16:54:05;4.75;;;2.70;;
34557;SDS011;24708;48.888;8.736;2023-03-15T16:56:47;6.47;;;3.10;;
34557;SDS011;24708;48.888;8.736;2023-03-15T16:59:15;7.07;;;3.50;;
